Time;durP1;ratioP1;P1;durP2;ratioP2;P2;SDS_P1;SDS_P2;PMS_P1;PMS_P2;Temp;Humidity;BMP_temperature;BMP_pressure;BME280_temperature;BME280_humidity;BME280_pressure;Samples;Min_cycle;Max_cycle;Signal;HPM_P1;HPM_P2
2021/12/27 00:00:56;;;;;;;38.63;16.83;;;;;;;-10.34;100.00;100425.16;5032398;28;20479;-71
2021/12/27 00:03:22;;;;;;;41.40;17.07;;;;;;;-10.32;100.00;100418.56;5027832;28;20460;-71
2021/12/27 00:05:49;;;;;;;38.63;16.30;;;;;;;-10.30;100.00;100425.38;5035718;28;20447;-71
2021/12/27 00:08:15;;;;;;;39.13;17.60;;;;;;;-10.25;100.00;100414.69;5025223;28;21002;-71
2021/12/27 00:10:42;;;;;;;44.70;19.00;;;;;;;-10.25;100.00;100418.09;5035677;28;20811;-71
2021/12/27 00:13:09;;;;;;;42.60;17.93;;;;;;;-10.20;100.00;100418.31;5021416;28;20482;-71
2021/12/27 00:15:39;;;;;;;41.43;18.87;;;;;;;-10.18;100.00;100415.09;5032699;28;20534;-70
2021/12/27 00:18:07;;;;;;;44.10;17.83;;;;;;;-10.17;100.00;100405.88;5029320;28;20495;-71
2021/12/27 00:20:33;;;;;;;38.03;15.83;;;;;;;-10.14;100.00;100399.34;5033684;28;20468;-70
2021/12/27 00:23:00;;;;;;;36.90;17.20;;;;;;;-10.11;100.00;100402.03;5017902;28;20817;-70
2021/12/27 00:25:28;;;;;;;42.43;18.30;;;;;;;-10.05;100.00;100395.59;5035523;28;20961;-71
2021/12/27 00:27:55;;;;;;;43.73;19.00;;;;;;;-10.01;100.00;100400.84;5027047;28;20521;-71
2021/12/27 00:30:25;;;;;;;38.80;17.30;;;;;;;-9.96;100.00;100391.88;5034682;28;20520;-71
2021/12/27 00:32:52;;;;;;;36.83;17.57;;;;;;;-9.90;100.00;100391.34;5018881;28;21016;-71
2021/12/27 00:35:22;;;;;;;41.30;17.70;;;;;;;-9.86;100.00;100375.56;5018514;28;20460;-71
2021/12/27 00:37:48;;;;;;;42.07;17.60;;;;;;;-9.78;100.00;100375.97;5029029;28;20580;-70
2021/12/27 00:40:15;;;;;;;44.20;18.70;;;;;;;-9.75;100.00;100376.13;5026667;28;20487;-71
2021/12/27 00:42:42;;;;;;;38.17;18.00;;;;;;;-9.71;100.00;100378.91;5024797;28;20479;-71
2021/12/27 00:45:10;;;;;;;45.90;18.57;;;;;;;-9.64;100.00;100374.16;5027522;28;20455;-71
2021/12/27 00:47:36;;;;;;;46.03;19.27;;;;;;;-9.63;100.00;100368.31;5028310;28;20471;-71
2021/12/27 00:50:03;;;;;;;40.50;18.40;;;;;;;-9.59;100.00;100370.19;5027713;28;20904;-71
2021/12/27 00:52:32;;;;;;;43.50;17.80;;;;;;;-9.58;100.00;100379.53;5024010;28;20470;-71
2021/12/27 00:54:59;;;;;;;39.90;18.87;;;;;;;-9.56;100.00;100382.97;5033679;28;20452;-71
2021/12/27 00:57:26;;;;;;;40.67;17.17;;;;;;;-9.58;100.00;100374.47;5033312;28;20510;-71
2021/12/27 00:59:52;;;;;;;41.57;18.77;;;;;;;-9.59;100.00;100372.72;5033009;28;20458;-71
2021/12/27 01:02:19;;;;;;;48.23;18.20;;;;;;;-9.57;100.00;100373.66;5035650;28;20534;-70
2021/12/27 01:04:45;;;;;;;45.43;17.80;;;;;;;-9.58;100.00;100387.09;5028055;28;20455;-71
2021/12/27 01:07:11;;;;;;;38.57;18.17;;;;;;;-9.55;100.00;100375.50;5018846;28;20475;-70
2021/12/27 01:09:53;;;;;;;43.33;17.80;;;;;;;-9.58;100.00;100374.47;5025315;28;20471;-71
2021/12/27 01:12:31;;;;;;;41.47;18.23;;;;;;;-9.59;100.00;100370.19;5022567;28;20879;-71
2021/12/27 01:15:10;;;;;;;35.37;15.87;;;;;;;-9.63;100.00;100371.69;5020394;28;20471;-71
2021/12/27 01:17:38;;;;;;;35.07;16.77;;;;;;;-9.60;100.00;100379.44;5027242;28;20867;-71
2021/12/27 01:20:07;;;;;;;40.00;17.90;;;;;;;-9.62;100.00;100368.41;5032130;28;20450;-71
2021/12/27 01:22:36;;;;;;;40.83;16.27;;;;;;;-9.60;100.00;100365.94;5028244;28;20462;-71
2021/12/27 01:25:06;;;;;;;39.40;17.57;;;;;;;-9.58;100.00;100352.59;5027857;28;20810;-70
2021/12/27 01:27:32;;;;;;;40.70;17.63;;;;;;;-9.57;100.00;100356.88;5029333;28;20614;-71
2021/12/27 01:29:59;;;;;;;42.80;18.37;;;;;;;-9.55;100.00;100340.16;5028843;28;20491;-71
2021/12/27 01:32:32;;;;;;;38.60;17.27;;;;;;;-9.51;100.00;100341.16;5025461;28;20462;-71
2021/12/27 01:34:59;;;;;;;38.90;17.90;;;;;;;-9.46;100.00;100346.44;5032957;28;20513;-71
2021/12/27 01:37:28;;;;;;;40.57;18.03;;;;;;;-9.41;100.00;100356.00;5023411;28;20459;-69
2021/12/27 01:39:55;;;;;;;43.00;18.27;;;;;;;-9.41;100.00;100367.72;5032557;28;20512;-70
2021/12/27 01:42:23;;;;;;;39.27;17.93;;;;;;;-9.40;100.00;100370.34;5024087;28;20487;-71
2021/12/27 01:44:50;;;;;;;37.03;17.87;;;;;;;-9.38;100.00;100362.84;5027123;28;20452;-71
2021/12/27 01:47:16;;;;;;;38.70;18.43;;;;;;;-9.39;100.00;100363.63;5027425;28;20459;-71
2021/12/27 01:49:42;;;;;;;40.60;17.97;;;;;;;-9.35;100.00;100363.00;5028610;28;20466;-70
2021/12/27 01:52:09;;;;;;;42.03;17.23;;;;;;;-9.29;100.00;100360.75;5029388;28;20489;-71
2021/12/27 01:54:35;;;;;;;41.57;19.27;;;;;;;-9.28;100.00;100364.16;5029121;28;20451;-71
2021/12/27 01:57:02;;;;;;;41.20;19.00;;;;;;;-9.23;100.00;100352.59;5025100;28;20468;-71
2021/12/27 01:59:29;;;;;;;42.77;18.13;;;;;;;-9.23;100.00;100350.97;5024053;28;20465;-69
2021/12/27 02:01:56;;;;;;;45.90;19.47;;;;;;;-9.22;100.00;100360.25;5028621;28;20475;-71
2021/12/27 02:04:22;;;;;;;43.20;18.63;;;;;;;-9.15;100.00;100356.38;5025792;28;20457;-70
2021/12/27 02:06:49;;;;;;;40.50;19.27;;;;;;;-9.10;100.00;100347.38;5025440;28;20457;-71
2021/12/27 02:09:17;;;;;;;44.07;19.37;;;;;;;-9.07;100.00;100337.44;5019789;28;21078;-71
2021/12/27 02:11:43;;;;;;;42.67;19.90;;;;;;;-9.05;100.00;100343.41;5024879;28;20482;-69
2021/12/27 02:14:10;;;;;;;48.13;19.20;;;;;;;-9.02;100.00;100332.56;5021715;28;20453;-71
2021/12/27 02:16:38;;;;;;;41.77;18.63;;;;;;;-8.97;100.00;100337.06;5021002;28;20466;-70
2021/12/27 02:19:05;;;;;;;40.97;18.63;;;;;;;-8.95;100.00;100327.03;5029158;28;20533;-70
2021/12/27 02:21:32;;;;;;;41.83;19.53;;;;;;;-8.93;100.00;100335.56;5026846;28;20489;-71
2021/12/27 02:24:01;;;;;;;39.50;19.50;;;;;;;-8.87;100.00;100329.94;5026186;28;20484;-71
2021/12/27 02:26:27;;;;;;;43.53;20.10;;;;;;;-8.83;100.00;100326.72;5021172;28;20828;-71
2021/12/27 02:28:54;;;;;;;45.23;20.43;;;;;;;-8.82;100.00;100334.41;5021436;28;20482;-70
2021/12/27 02:31:20;;;;;;;43.90;20.00;;;;;;;-8.81;100.00;100331.09;5022376;28;20489;-70
2021/12/27 02:33:47;;;;;;;46.13;19.27;;;;;;;-8.76;100.00;100332.16;5025979;28;20868;-71
2021/12/27 02:36:14;;;;;;;45.27;20.97;;;;;;;-8.73;100.00;100328.91;5030754;28;20451;-71
2021/12/27 02:38:44;;;;;;;47.27;20.57;;;;;;;-8.65;100.00;100327.59;5022866;28;20465;-69
2021/12/27 02:41:11;;;;;;;43.43;19.30;;;;;;;-8.61;100.00;100315.97;5019949;28;20474;-71
2021/12/27 02:43:41;;;;;;;43.33;20.30;;;;;;;-8.63;100.00;100317.56;5023750;28;20550;-71
2021/12/27 02:46:14;;;;;;;47.83;20.63;;;;;;;-8.59;100.00;100311.84;5025477;28;20832;-71
2021/12/27 02:48:45;;;;;;;48.73;20.80;;;;;;;-8.57;100.00;100316.16;5021945;28;20469;-70
2021/12/27 02:51:12;;;;;;;51.93;21.20;;;;;;;-8.51;100.00;100314.72;5031654;28;20472;-70
2021/12/27 02:53:39;;;;;;;45.67;18.93;;;;;;;-8.51;100.00;100310.56;5027423;28;20850;-71
2021/12/27 02:56:08;;;;;;;44.13;20.63;;;;;;;-8.46;100.00;100309.09;5027634;28;20458;-71
2021/12/27 02:58:35;;;;;;;43.13;19.60;;;;;;;-8.40;100.00;100304.28;5020960;28;20451;-71
2021/12/27 03:01:07;;;;;;;48.57;21.93;;;;;;;-8.40;100.00;100296.69;5035398;28;20475;-71
2021/12/27 03:03:34;;;;;;;50.97;21.13;;;;;;;-8.35;100.00;100296.00;5016390;28;20467;-72
2021/12/27 03:06:01;;;;;;;49.80;21.97;;;;;;;-8.33;100.00;100292.75;5026155;28;20792;-70
2021/12/27 03:08:28;;;;;;;49.20;21.43;;;;;;;-8.33;100.00;100300.34;5027415;28;20459;-70
2021/12/27 03:10:58;;;;;;;45.70;21.03;;;;;;;-8.27;100.00;100290.50;5020654;28;20487;-71
2021/12/27 03:13:27;;;;;;;43.53;21.47;;;;;;;-8.26;100.00;100284.66;5024748;28;20453;-71
2021/12/27 03:15:55;;;;;;;50.90;21.00;;;;;;;-8.22;100.00;100276.38;5022465;28;20469;-71
2021/12/27 03:18:22;;;;;;;49.97;19.93;;;;;;;-8.18;100.00;100279.91;5026606;28;20473;-70
2021/12/27 03:20:49;;;;;;;44.77;19.87;;;;;;;-8.15;100.00;100271.59;5032172;28;20477;-71
2021/12/27 03:23:16;;;;;;;47.30;20.77;;;;;;;-8.14;100.00;100273.31;5023492;28;20839;-70
2021/12/27 03:25:43;;;;;;;47.87;20.30;;;;;;;-8.08;100.00;100273.59;5027926;28;20461;-69
2021/12/27 03:28:10;;;;;;;44.27;20.97;;;;;;;-8.05;100.00;100269.53;5017805;28;20460;-71
2021/12/27 03:30:38;;;;;;;49.53;20.47;;;;;;;-8.03;100.00;100273.00;5019961;28;20524;-71
2021/12/27 03:33:06;;;;;;;47.93;21.03;;;;;;;-7.99;100.00;100269.78;5024412;28;20944;-71
2021/12/27 03:35:37;;;;;;;48.00;20.90;;;;;;;-7.97;100.00;100261.41;5020743;28;20545;-71
2021/12/27 03:38:07;;;;;;;45.17;19.87;;;;;;;-7.92;100.00;100267.53;5025790;28;20457;-71
2021/12/27 03:40:34;;;;;;;40.00;21.00;;;;;;;-7.91;100.00;100269.28;5032041;28;20470;-72
2021/12/27 03:43:00;;;;;;;53.97;22.43;;;;;;;-7.90;100.00;100260.88;5022696;28;20977;-72
2021/12/27 03:45:28;;;;;;;44.43;20.70;;;;;;;-7.89;100.00;100268.53;5035948;28;20458;-70
2021/12/27 03:47:57;;;;;;;48.67;19.60;;;;;;;-7.87;100.00;100268.59;5020422;28;20468;-69
2021/12/27 03:50:25;;;;;;;49.70;21.13;;;;;;;-7.84;100.00;100261.13;5021790;28;20490;-71
2021/12/27 03:52:51;;;;;;;47.50;21.47;;;;;;;-7.81;100.00;100246.06;5028510;28;20462;-71
2021/12/27 03:55:18;;;;;;;55.57;21.57;;;;;;;-7.80;100.00;100246.13;5025741;28;20512;-71
2021/12/27 03:57:52;;;;;;;53.03;22.30;;;;;;;-7.78;100.00;100233.53;5024332;28;20474;-71
2021/12/27 04:00:32;;;;;;;47.10;21.33;;;;;;;-7.71;100.00;100234.66;5023345;28;20483;-71
2021/12/27 04:03:01;;;;;;;48.57;23.17;;;;;;;-7.72;100.00;100236.34;5022400;28;20870;-71
2021/12/27 04:05:29;;;;;;;45.77;20.63;;;;;;;-7.72;100.00;100243.03;5029078;28;20832;-70
2021/12/27 04:08:03;;;;;;;51.30;22.73;;;;;;;-7.67;100.00;100245.00;5024631;28;20861;-71
2021/12/27 04:10:31;;;;;;;52.93;23.03;;;;;;;-7.65;100.00;100250.09;5016479;28;20540;-72
2021/12/27 04:12:57;;;;;;;50.67;23.20;;;;;;;-7.61;100.00;100251.97;5021211;28;20471;-71
2021/12/27 04:15:25;;;;;;;45.63;21.83;;;;;;;-7.58;100.00;100249.56;5017588;28;20471;-71
2021/12/27 04:17:52;;;;;;;46.00;21.77;;;;;;;-7.58;100.00;100243.59;5020383;28;20458;-71
2021/12/27 04:20:21;;;;;;;51.63;22.13;;;;;;;-7.57;100.00;100236.06;5026929;28;21012;-71
2021/12/27 04:22:48;;;;;;;52.93;21.73;;;;;;;-7.55;100.00;100234.47;5022926;28;20485;-71
2021/12/27 04:25:15;;;;;;;52.30;23.67;;;;;;;-7.49;100.00;100239.81;5033076;28;20454;-72
2021/12/27 04:27:41;;;;;;;54.00;24.17;;;;;;;-7.49;100.00;100244.88;5022904;28;20934;-70
2021/12/27 04:30:08;;;;;;;54.37;24.37;;;;;;;-7.47;100.00;100250.84;5030504;28;20566;-71
2021/12/27 04:32:35;;;;;;;58.00;24.67;;;;;;;-7.41;100.00;100250.22;5023681;28;20956;-71
2021/12/27 04:35:02;;;;;;;59.20;23.23;;;;;;;-7.42;100.00;100241.78;5035562;28;20458;-72
2021/12/27 04:37:29;;;;;;;58.07;24.67;;;;;;;-7.40;100.00;100238.41;5021684;28;20454;-71
2021/12/27 04:39:56;;;;;;;51.20;22.80;;;;;;;-7.38;100.00;100235.16;5035234;28;20464;-71
2021/12/27 04:42:23;;;;;;;58.57;23.03;;;;;;;-7.35;100.00;100221.72;5022809;28;20494;-70
2021/12/27 04:44:50;;;;;;;55.80;22.60;;;;;;;-7.32;100.00;100230.31;5020293;28;20450;-71
2021/12/27 04:47:16;;;;;;;50.40;22.03;;;;;;;-7.31;100.00;100219.41;5019780;28;20972;-71
2021/12/27 04:49:43;;;;;;;48.67;22.87;;;;;;;-7.35;100.00;100221.72;5026933;28;21071;-71
2021/12/27 04:52:10;;;;;;;50.20;22.83;;;;;;;-7.30;100.00;100218.59;5019774;28;20485;-71
2021/12/27 04:54:38;;;;;;;50.23;24.67;;;;;;;-7.30;100.00;100213.53;5015423;28;21077;-71
2021/12/27 04:57:05;;;;;;;52.27;23.63;;;;;;;-7.25;100.00;100206.09;5017450;28;20458;-70
2021/12/27 04:59:32;;;;;;;50.90;24.60;;;;;;;-7.24;100.00;100210.38;5024259;28;20931;-71
2021/12/27 05:01:59;;;;;;;53.90;23.77;;;;;;;-7.20;100.00;100209.69;5022257;28;20494;-70
2021/12/27 05:04:25;;;;;;;56.13;22.77;;;;;;;-7.17;100.00;100214.88;5022912;28;20462;-70
2021/12/27 05:06:51;;;;;;;56.73;24.77;;;;;;;-7.15;100.00;100212.41;5023935;28;20524;-71
2021/12/27 05:09:18;;;;;;;52.50;23.63;;;;;;;-7.12;100.00;100210.00;5029554;28;20458;-71
2021/12/27 05:11:46;;;;;;;54.53;25.00;;;;;;;-7.10;100.00;100204.16;5020790;28;20483;-71
2021/12/27 05:14:12;;;;;;;51.57;22.67;;;;;;;-7.10;100.00;100209.22;5022593;28;20484;-71
2021/12/27 05:16:39;;;;;;;55.70;24.00;;;;;;;-7.09;100.00;100213.50;5023593;28;20870;-71
2021/12/27 05:19:05;;;;;;;56.30;26.37;;;;;;;-7.06;100.00;100207.69;5025265;28;20454;-71
2021/12/27 05:21:32;;;;;;;58.37;24.03;;;;;;;-7.00;100.00;100207.03;5022543;28;20474;-71
2021/12/27 05:23:58;;;;;;;49.30;22.43;;;;;;;-6.98;100.00;100198.69;5022499;28;20551;-70
2021/12/27 05:26:25;;;;;;;52.17;24.30;;;;;;;-6.98;100.00;100191.09;5021373;28;20582;-71
2021/12/27 05:28:53;;;;;;;59.33;25.23;;;;;;;-6.93;100.00;100191.25;5023401;28;20454;-71
2021/12/27 05:31:19;;;;;;;50.27;22.27;;;;;;;-6.94;100.00;100192.94;5026292;28;20668;-71
2021/12/27 05:33:45;;;;;;;51.13;23.43;;;;;;;-6.89;100.00;100193.97;5026936;28;20466;-71
2021/12/27 05:36:13;;;;;;;48.40;23.43;;;;;;;-6.89;100.00;100188.03;5018282;28;20455;-71
2021/12/27 05:38:39;;;;;;;51.97;22.77;;;;;;;-6.87;100.00;100201.63;5022670;28;20951;-71
2021/12/27 05:41:06;;;;;;;54.63;23.80;;;;;;;-6.82;100.00;100197.59;5017095;28;20481;-71
2021/12/27 05:43:32;;;;;;;52.73;23.13;;;;;;;-6.81;100.00;100191.69;5025361;28;20551;-71
2021/12/27 05:46:02;;;;;;;51.77;25.47;;;;;;;-6.82;100.00;100197.59;5016103;28;20462;-71
2021/12/27 05:48:28;;;;;;;63.10;23.63;;;;;;;-6.76;100.00;100202.03;5021564;28;20986;-71
2021/12/27 05:50:55;;;;;;;54.80;23.30;;;;;;;-6.77;100.00;100200.28;5021018;28;20505;-70
2021/12/27 05:53:21;;;;;;;53.27;24.33;;;;;;;-6.78;100.00;100206.19;5023109;28;20466;-71
2021/12/27 05:55:48;;;;;;;48.50;23.23;;;;;;;-6.72;100.00;100194.59;5017513;28;20950;-71
2021/12/27 05:58:14;;;;;;;56.70;23.33;;;;;;;-6.71;100.00;100201.38;5023503;28;20465;-70
2021/12/27 06:00:41;;;;;;;55.10;23.67;;;;;;;-6.70;100.00;100198.06;5022928;28;20462;-71
2021/12/27 06:03:09;;;;;;;53.17;24.40;;;;;;;-6.66;100.00;100193.94;5020846;28;20455;-71
2021/12/27 06:05:35;;;;;;;51.90;23.40;;;;;;;-6.64;100.00;100191.47;5024804;28;20959;-70
2021/12/27 06:08:02;;;;;;;49.97;22.80;;;;;;;-6.69;100.00;100182.00;5016114;28;20478;-71
2021/12/27 06:10:28;;;;;;;57.50;24.67;;;;;;;-6.67;100.00;100184.59;5018214;28;20488;-71
2021/12/27 06:12:55;;;;;;;49.87;23.73;;;;;;;-6.66;100.00;100183.81;5015960;28;20987;-71
2021/12/27 06:15:21;;;;;;;61.93;24.80;;;;;;;-6.63;100.00;100183.03;5022045;28;20475;-72
2021/12/27 06:17:48;;;;;;;57.80;24.70;;;;;;;-6.63;100.00;100194.06;5030387;28;20465;-71
2021/12/27 06:20:17;;;;;;;48.50;22.83;;;;;;;-6.63;100.00;100193.19;5025479;28;20829;-71
2021/12/27 06:22:47;;;;;;;62.13;25.37;;;;;;;-6.60;100.00;100193.31;5022738;28;20467;-72
2021/12/27 06:25:14;;;;;;;55.87;23.83;;;;;;;-6.57;100.00;100196.81;5023252;28;20550;-71
2021/12/27 06:27:40;;;;;;;49.40;24.00;;;;;;;-6.52;100.00;100194.47;5014614;28;20451;-71
2021/12/27 06:30:10;;;;;;;56.73;24.87;;;;;;;-6.54;100.00;100193.53;5019748;28;20461;-71
2021/12/27 06:32:37;;;;;;;53.30;25.70;;;;;;;-6.52;100.00;100190.22;5015305;28;20454;-71
2021/12/27 06:35:04;;;;;;;57.13;25.03;;;;;;;-6.48;100.00;100186.13;5023053;28;20808;-71
2021/12/27 06:37:32;;;;;;;55.20;25.10;;;;;;;-6.48;100.00;100189.53;5019678;28;20459;-72
2021/12/27 06:39:59;;;;;;;53.23;24.77;;;;;;;-6.46;100.00;100181.97;5018732;28;20473;-72
2021/12/27 06:42:25;;;;;;;56.30;25.40;;;;;;;-6.45;100.00;100188.78;5019088;28;20478;-71
2021/12/27 06:44:52;;;;;;;55.57;25.33;;;;;;;-6.43;100.00;100187.16;5021602;28;20452;-71
2021/12/27 06:47:18;;;;;;;57.87;24.27;;;;;;;-6.41;100.00;100183.00;5019906;28;20460;-71
2021/12/27 06:49:44;;;;;;;62.40;27.00;;;;;;;-6.39;100.00;100176.31;5018096;28;20454;-69
2021/12/27 06:52:11;;;;;;;59.47;25.23;;;;;;;-6.39;100.00;100186.44;5022552;28;20862;-70
2021/12/27 06:54:40;;;;;;;54.30;24.90;;;;;;;-6.36;100.00;100194.19;5016817;28;20463;-71
2021/12/27 06:57:07;;;;;;;53.87;25.13;;;;;;;-6.35;100.00;100192.50;5015136;28;20459;-71
2021/12/27 06:59:34;;;;;;;53.27;23.43;;;;;;;-6.33;100.00;100191.75;5020666;28;20458;-69
2021/12/27 07:02:01;;;;;;;56.63;25.30;;;;;;;-6.33;100.00;100185.78;5015301;28;21029;-71
2021/12/27 07:04:27;;;;;;;50.93;24.60;;;;;;;-6.30;100.00;100185.91;5026403;28;20465;-70
2021/12/27 07:06:54;;;;;;;51.90;25.23;;;;;;;-6.31;100.00;100185.06;5021014;28;21082;-71
2021/12/27 07:09:21;;;;;;;55.43;24.53;;;;;;;-6.26;100.00;100184.34;5017591;28;20470;-71
2021/12/27 07:11:49;;;;;;;55.80;24.27;;;;;;;-6.26;100.00;100179.25;5025255;28;20474;-71
2021/12/27 07:14:15;;;;;;;50.60;23.57;;;;;;;-6.21;100.00;100177.75;5021601;28;20474;-72
2021/12/27 07:16:42;;;;;;;47.80;23.27;;;;;;;-6.20;100.00;100184.56;5024712;28;20461;-72
2021/12/27 07:19:08;;;;;;;49.40;22.27;;;;;;;-6.16;100.00;100183.84;5028023;28;20467;-71
2021/12/27 07:21:35;;;;;;;53.70;24.43;;;;;;;-6.15;100.00;100183.06;5023685;28;20481;-71
2021/12/27 07:24:01;;;;;;;50.17;22.60;;;;;;;-6.14;100.00;100183.13;5021005;28;20454;-71
2021/12/27 07:26:28;;;;;;;60.07;23.93;;;;;;;-6.12;100.00;100186.56;5022959;28;20545;-71
2021/12/27 07:28:55;;;;;;;59.60;25.03;;;;;;;-6.07;100.00;100183.31;5032125;28;20477;-72
2021/12/27 07:31:22;;;;;;;65.93;23.57;;;;;;;-6.03;100.00;100180.94;5022551;28;20839;-71
2021/12/27 07:33:49;;;;;;;57.83;24.77;;;;;;;-6.00;100.00;100180.16;5025906;28;20524;-71
2021/12/27 07:36:16;;;;;;;53.73;25.20;;;;;;;-5.99;100.00;100185.28;5021466;28;20465;-72
2021/12/27 07:38:43;;;;;;;62.97;25.73;;;;;;;-5.96;100.00;100172.72;5031919;28;20486;-72
2021/12/27 07:41:10;;;;;;;51.73;23.53;;;;;;;-5.96;100.00;100179.44;5025395;28;20485;-72
2021/12/27 07:43:36;;;;;;;55.60;25.67;;;;;;;-5.94;100.00;100171.03;5029922;28;20466;-69
2021/12/27 07:46:04;;;;;;;57.13;22.93;;;;;;;-5.88;100.00;100174.59;5021187;28;21159;-72
2021/12/27 07:48:30;;;;;;;51.03;24.73;;;;;;;-5.88;100.00;100172.06;5022486;28;20470;-71
2021/12/27 07:50:57;;;;;;;55.27;24.23;;;;;;;-5.84;100.00;100179.84;5018673;28;20569;-70
2021/12/27 07:53:24;;;;;;;59.87;24.23;;;;;;;-5.83;100.00;100185.78;5027184;28;20820;-72
2021/12/27 07:55:50;;;;;;;54.87;23.37;;;;;;;-5.79;100.00;100179.97;5021297;28;20470;-71
2021/12/27 07:58:17;;;;;;;51.50;25.00;;;;;;;-5.77;100.00;100180.88;5025285;28;20459;-72
2021/12/27 08:00:45;;;;;;;58.87;25.93;;;;;;;-5.75;100.00;100182.69;5020587;28;20874;-69
2021/12/27 08:03:13;;;;;;;54.57;25.17;;;;;;;-5.75;100.00;100182.69;5032120;28;20481;-71
2021/12/27 08:05:39;;;;;;;60.33;25.27;;;;;;;-5.70;100.00;100182.81;5023032;28;20466;-72
2021/12/27 08:08:06;;;;;;;50.00;23.47;;;;;;;-5.67;100.00;100174.44;5032566;28;20456;-71
2021/12/27 08:10:32;;;;;;;55.03;24.53;;;;;;;-5.66;100.00;100169.41;5019772;28;20478;-71
2021/12/27 08:12:59;;;;;;;57.73;25.80;;;;;;;-5.63;100.00;100169.47;5025898;28;20824;-72
2021/12/27 08:15:25;;;;;;;62.13;25.97;;;;;;;-5.55;100.00;100175.69;5018750;28;20470;-72
2021/12/27 08:17:51;;;;;;;56.00;24.37;;;;;;;-5.53;100.00;100165.56;5019855;28;20457;-72
2021/12/27 08:20:20;;;;;;;55.87;23.33;;;;;;;-5.47;100.00;100164.91;5018400;28;20464;-72
2021/12/27 08:22:47;;;;;;;55.97;24.70;;;;;;;-5.42;100.00;100168.44;5023360;28;20468;-72
2021/12/27 08:25:14;;;;;;;61.00;25.57;;;;;;;-5.45;100.00;100159.06;5021863;28;20464;-72
2021/12/27 08:27:42;;;;;;;54.83;25.40;;;;;;;-5.39;100.00;100160.94;5021450;28;20468;-72
2021/12/27 08:30:11;;;;;;;53.67;24.40;;;;;;;-5.38;100.00;100162.63;5022875;28;20485;-72
2021/12/27 08:32:39;;;;;;;63.07;25.63;;;;;;;-5.31;100.00;100151.88;5028554;28;20846;-72
2021/12/27 08:35:06;;;;;;;56.17;24.33;;;;;;;-5.25;100.00;100151.19;5019727;28;20980;-71
2021/12/27 08:37:35;;;;;;;47.73;23.73;;;;;;;-5.24;100.00;100147.81;5023282;28;20490;-71
2021/12/27 08:40:02;;;;;;;49.37;24.23;;;;;;;-5.22;100.00;100147.06;5013586;28;20464;-71
2021/12/27 08:42:29;;;;;;;56.63;24.83;;;;;;;-5.20;100.00;100158.13;5019578;28;20841;-72
2021/12/27 08:44:55;;;;;;;59.50;28.43;;;;;;;-5.16;100.00;100149.75;5018311;28;21104;-71
2021/12/27 08:47:21;;;;;;;58.00;25.77;;;;;;;-5.13;100.00;100149.84;5016650;28;20455;-72
2021/12/27 08:49:48;;;;;;;64.67;26.53;;;;;;;-5.09;100.00;100145.72;5018023;28;20467;-69
2021/12/27 08:52:14;;;;;;;57.37;26.00;;;;;;;-5.07;100.00;100146.63;5020590;28;20533;-70
2021/12/27 08:54:42;;;;;;;55.03;25.40;;;;;;;-5.02;100.00;100141.69;5017098;28;20996;-72
2021/12/27 08:57:09;;;;;;;60.03;27.83;;;;;;;-4.99;100.00;100147.72;5030480;28;20458;-72
2021/12/27 08:59:37;;;;;;;58.57;26.60;;;;;;;-4.93;100.00;100151.28;5018833;28;20904;-72
2021/12/27 09:02:04;;;;;;;58.80;25.30;;;;;;;-4.90;100.00;100148.81;5023284;28;20552;-72
2021/12/27 09:04:30;;;;;;;51.07;24.23;;;;;;;-4.84;100.00;100148.97;5015229;28;20460;-72
2021/12/27 09:06:57;;;;;;;58.27;25.30;;;;;;;-4.80;100.00;100145.69;5025609;28;20458;-72
2021/12/27 09:09:24;;;;;;;52.70;23.97;;;;;;;-4.74;100.00;100139.94;5027085;28;20464;-72
2021/12/27 09:11:51;;;;;;;52.20;23.87;;;;;;;-4.70;100.00;100141.75;5030471;28;20487;-72
2021/12/27 09:14:18;;;;;;;52.33;24.17;;;;;;;-4.67;100.00;100150.31;5023499;28;20472;-71
2021/12/27 09:16:45;;;;;;;54.00;24.03;;;;;;;-4.65;100.00;100140.19;5018005;28;20461;-71
2021/12/27 09:19:12;;;;;;;56.07;24.60;;;;;;;-4.60;100.00;100139.50;5022875;28;20473;-70
2021/12/27 09:21:39;;;;;;;52.67;24.27;;;;;;;-4.58;100.00;100144.63;5019387;28;20482;-69
2021/12/27 09:24:06;;;;;;;56.43;23.33;;;;;;;-4.52;100.00;100141.38;5020993;28;20470;-72
2021/12/27 09:26:32;;;;;;;49.80;23.47;;;;;;;-4.47;100.00;100139.81;5015233;28;20949;-71
2021/12/27 09:29:00;;;;;;;48.80;24.37;;;;;;;-4.43;100.00;100134.00;5021764;28;20470;-70
2021/12/27 09:31:27;;;;;;;50.90;23.53;;;;;;;-4.42;100.00;100139.13;5015747;28;20480;-71
2021/12/27 09:33:53;;;;;;;52.20;24.80;;;;;;;-4.37;100.00;100134.16;5014752;28;20469;-72
2021/12/27 09:36:20;;;;;;;49.20;25.40;;;;;;;-4.34;100.00;100134.25;5015992;28;20828;-72
2021/12/27 09:38:47;;;;;;;52.43;23.73;;;;;;;-4.35;100.00;100127.41;5018064;28;20474;-72
2021/12/27 09:41:14;;;;;;;50.70;23.03;;;;;;;-4.35;100.00;100127.41;5043698;28;20996;-72
2021/12/27 09:43:42;;;;;;;46.73;22.20;;;;;;;-4.28;100.00;100126.75;5029046;28;20468;-71
2021/12/27 09:46:10;;;;;;;53.30;23.50;;;;;;;-4.29;100.00;100129.25;5022447;28;20469;-72
2021/12/27 09:48:36;;;;;;;52.80;23.57;;;;;;;-4.26;100.00;100122.56;5022180;28;20469;-70
2021/12/27 09:51:04;;;;;;;49.80;24.20;;;;;;;-4.25;100.00;100110.72;5026390;28;20486;-72
2021/12/27 09:53:31;;;;;;;57.00;24.23;;;;;;;-4.21;100.00;100108.25;5028396;28;20464;-72
2021/12/27 09:55:58;;;;;;;50.17;23.20;;;;;;;-4.23;100.00;100115.00;5022309;28;20461;-71
2021/12/27 09:58:24;;;;;;;48.30;23.17;;;;;;;-4.18;100.00;100115.13;5016914;28;20460;-70
2021/12/27 10:00:51;;;;;;;61.70;23.83;;;;;;;-4.17;100.00;100104.13;5018143;28;20488;-70
2021/12/27 10:03:18;;;;;;;48.57;24.07;;;;;;;-4.12;100.00;100099.16;5021534;28;20466;-72
2021/12/27 10:05:45;;;;;;;53.47;24.57;;;;;;;-4.10;100.00;100097.50;5020174;28;20488;-72
2021/12/27 10:08:11;;;;;;;52.93;23.80;;;;;;;-4.06;100.00;100097.63;5022128;28;20469;-72
2021/12/27 10:10:38;;;;;;;51.93;23.60;;;;;;;-4.05;100.00;100090.84;5022359;28;20484;-72
2021/12/27 10:13:07;;;;;;;55.43;24.37;;;;;;;-4.01;100.00;100092.63;5020884;28;20494;-72
2021/12/27 10:15:35;;;;;;;51.10;23.27;;;;;;;-3.96;100.00;100093.59;5018990;28;20462;-72
2021/12/27 10:18:08;;;;;;;58.40;25.90;;;;;;;-3.95;100.00;100091.94;5017705;28;20474;-72
2021/12/27 10:20:36;;;;;;;64.27;27.63;;;;;;;-3.91;100.00;100091.16;5017958;28;20489;-72
2021/12/27 10:23:03;;;;;;;48.10;23.80;;;;;;;-3.88;100.00;100083.59;5015154;28;20475;-71
2021/12/27 10:25:30;;;;;;;66.27;26.67;;;;;;;-3.89;100.00;100072.53;5016056;28;20555;-71
2021/12/27 10:27:59;;;;;;;59.03;28.73;;;;;;;-3.82;100.00;100071.88;5017483;28;21105;-72
2021/12/27 10:30:28;;;;;;;55.77;26.30;;;;;;;-3.79;100.00;100076.16;5013327;28;20499;-69
2021/12/27 10:33:04;;;;;;;60.50;27.53;;;;;;;-3.73;100.00;100071.25;5013036;28;20496;-71
2021/12/27 10:35:37;;;;;;;61.10;28.03;;;;;;;-3.72;100.00;100064.44;5013504;28;20461;-71
2021/12/27 10:38:19;;;;;;;53.27;26.17;;;;;;;-3.71;100.00;100064.47;5014487;28;20474;-72
2021/12/27 10:40:51;;;;;;;46.90;23.50;;;;;;;-3.71;100.00;100061.94;5019204;28;20480;-72
2021/12/27 10:43:19;;;;;;;55.13;25.70;;;;;;;-3.69;100.00;100070.47;5026908;28;20469;-72
2021/12/27 10:45:47;;;;;;;57.10;24.83;;;;;;;-3.66;100.00;100065.44;5017637;28;20515;-71
2021/12/27 10:48:20;;;;;;;56.57;25.53;;;;;;;-3.66;100.00;100068.00;5017450;28;20556;-72
2021/12/27 10:50:49;;;;;;;56.97;25.07;;;;;;;-3.60;100.00;100063.88;5020513;28;20479;-72
2021/12/27 10:53:15;;;;;;;59.83;26.53;;;;;;;-3.55;100.00;100054.59;5023863;28;20487;-71
2021/12/27 10:55:46;;;;;;;56.27;26.47;;;;;;;-3.52;100.00;100057.22;5010055;28;20472;-72
2021/12/27 10:58:18;;;;;;;53.43;25.77;;;;;;;-3.52;100.00;100054.69;5017081;28;20770;-72
2021/12/27 11:00:46;;;;;;;57.53;26.47;;;;;;;-3.47;100.00;100048.00;5012334;28;20575;-72
2021/12/27 11:03:28;;;;;;;61.17;27.70;;;;;;;-3.50;100.00;100053.91;5008189;28;20557;-71